Date,TemperatureHighF,TemperatureAvgF,TemperatureLowF,DewpointHighF,DewpointAvgF,DewpointLowF,HumidityHigh,HumidityAvg,HumidityLow,PressureMaxIn,PressureMinIn,WindSpeedMaxMPH,WindSpeedAvgMPH,GustSpeedMaxMPH,PrecipitationSumIn
2013-3-1,34.3,28.7,20.8,26.9,23.5,17.1,91,81,68,30.47,30.32,12,6,16,0.00
2013-3-2,38.4,27.9,16.5,26.7,21.0,13.8,91,76,57,30.49,30.26,7,3,9,0.00
2013-3-3,51.9,40.6,29.9,40.8,32.7,24.8,84,74,62,30.25,29.68,12,7,14,0.00
2013-3-4,45.1,41.3,36.6,38.3,35.3,31.9,92,79,68,30.15,29.62,23,11,26,0.03
2013-3-5,41.6,34.5,27.5,34.4,22.2,17.7,92,61,47,30.49,30.15,20,12,27,0.00
2013-3-6,44.8,34.5,24.3,28.8,23.2,18.5,80,64,48,30.53,30.26,14,6,16,0.00
2013-3-7,65.1,48.0,32.6,34.7,29.5,25.4,76,52,28,30.26,30.05,18,12,23,0.00
2013-3-8,59.3,51.2,42.6,48.6,41.3,32.5,81,69,58,30.12,29.92,19,13,24,0.00
2013-3-9,58.2,54.1,51.4,57.4,51.6,46.7,97,91,77,29.93,29.60,16,10,21,0.69
2013-3-10,40.8,32.6,29.2,38.9,28.3,21.9,94,84,73,30.14,29.64,19,14,0,0.00
2013-3-11,51.4,35.0,23.0,26.9,20.4,16.0,82,58,31,30.14,30.05,14,8,0,0.00
2013-3-12,52.0,44.1,36.7,37.7,29.2,21.9,86,57,38,30.43,30.14,15,7,5,0.01
2013-3-13,56.9,41.9,28.4,35.9,25.9,17.9,76,54,38,30.52,30.33,13,6,18,0.00
2013-3-14,77.1,55.9,37.6,46.3,38.0,28.5,79,54,25,30.33,30.11,14,7,17,0.00
2013-3-15,79.2,63.0,47.2,52.0,46.5,41.3,81,57,33,30.11,29.70,15,6,19,0.00
2013-3-16,62.3,48.2,37.3,48.2,38.3,29.8,79,69,59,30.02,29.71,20,14,28,0.00
2013-3-17,41.5,37.8,35.0,36.1,32.4,28.7,94,81,74,30.04,29.75,17,9,20,0.00
2013-3-18,56.2,45.3,37.1,37.5,29.6,20.5,95,61,25,30.09,29.82,16,7,19,0.00
2013-3-19,54.1,42.6,31.5,32.2,23.7,19.0,83,49,30,30.35,30.08,16,7,22,0.00
2013-3-20,47.4,38.1,29.8,31.2,21.9,14.1,91,56,32,30.49,30.09,14,6,19,0.00
2013-3-21,48.7,39.6,34.0,30.4,23.2,18.6,86,53,37,30.09,29.77,26,17,34,0.00
2013-3-22,48.7,37.8,31.1,35.2,31.8,29.3,94,80,58,30.04,29.91,11,7,16,0.00
2013-3-23,36.3,33.5,30.9,33.1,31.7,29.9,97,93,82,30.03,29.89,19,10,24,0.16
2013-3-24,33.8,28.6,22.9,29.6,22.7,18.2,96,79,58,30.27,30.01,21,14,30,0.00
2013-3-25,34.3,28.3,22.7,22.6,18.5,16.8,78,67,50,30.50,30.27,18,11,25,0.00
2013-3-26,47.7,33.3,18.9,29.8,22.4,15.4,86,66,43,30.54,30.29,12,5,17,0.00
2013-3-27,62.7,47.4,35.3,36.6,30.0,24.1,65,52,34,30.29,30.12,17,11,25,0.00
2013-3-28,67.1,50.0,35.8,49.8,38.6,31.4,84,66,49,30.21,30.09,10,6,24,0.00
2013-3-29,71.4,60.0,47.5,56.5,51.3,44.7,90,74,55,30.17,30.03,14,7,0,0.00
2013-3-30,73.4,60.8,52.7,59.1,54.5,50.1,95,81,50,30.03,29.87,12,6,7,0.10
2013-3-31,65.0,55.5,43.8,52.7,43.7,38.0,95,68,38,30.08,29.94,16,6,19,0.03